sensor_id;sensor_type;location;lat;lon;timestamp;pressure;altitude;pressure_sealevel;temperature;humidity
79221;BME280;72175;52.118;5.406;2023-10-13T00:02:10;101202.66;;;19.13;67.34
79221;BME280;72175;52.118;5.406;2023-10-13T00:04:37;101214.84;;;19.16;67.50
79221;BME280;72175;52.118;5.406;2023-10-13T00:07:04;101210.53;;;19.15;67.60
79221;BME280;72175;52.118;5.406;2023-10-13T00:09:35;101203.50;;;19.14;67.45
79221;BME280;72175;52.118;5.406;2023-10-13T00:12:08;101204.31;;;19.14;67.44
79221;BME280;72175;52.118;5.406;2023-10-13T00:14:41;101201.66;;;19.14;67.53
79221;BME280;72175;52.118;5.406;2023-10-13T00:17:08;101185.72;;;19.13;67.63
79221;BME280;72175;52.118;5.406;2023-10-13T00:19:37;101177.69;;;19.13;67.60
79221;BME280;72175;52.118;5.406;2023-10-13T00:22:08;101192.75;;;19.14;67.71
79221;BME280;72175;52.118;5.406;2023-10-13T00:24:39;101187.41;;;19.14;67.47
79221;BME280;72175;52.118;5.406;2023-10-13T00:27:19;101182.03;;;19.14;67.55
79221;BME280;72175;52.118;5.406;2023-10-13T00:30:04;101182.03;;;19.14;67.61
79221;BME280;72175;52.118;5.406;2023-10-13T00:32:44;101177.69;;;19.13;67.59
79221;BME280;72175;52.118;5.406;2023-10-13T00:35:13;101180.38;;;19.13;67.74
79221;BME280;72175;52.118;5.406;2023-10-13T00:37:41;101169.63;;;19.13;67.58
79221;BME280;72175;52.118;5.406;2023-10-13T00:40:11;101175.00;;;19.13;67.70
79221;BME280;72175;52.118;5.406;2023-10-13T00:42:59;101163.44;;;19.12;67.71
79221;BME280;72175;52.118;5.406;2023-10-13T00:45:56;101168.81;;;19.12;67.88
79221;BME280;72175;52.118;5.406;2023-10-13T00:48:36;101160.75;;;19.12;67.65
79221;BME280;72175;52.118;5.406;2023-10-13T00:51:10;101160.75;;;19.12;67.68
79221;BME280;72175;52.118;5.406;2023-10-13T00:53:56;101155.41;;;19.12;67.63
79221;BME280;72175;52.118;5.406;2023-10-13T00:56:25;101156.41;;;19.11;67.48
79221;BME280;72175;52.118;5.406;2023-10-13T00:58:57;101152.72;;;19.12;67.60
79221;BME280;72175;52.118;5.406;2023-10-13T01:01:29;101147.34;;;19.12;67.70
79221;BME280;72175;52.118;5.406;2023-10-13T01:04:08;101133.94;;;19.12;67.70
79221;BME280;72175;52.118;5.406;2023-10-13T01:06:39;101136.63;;;19.12;67.60
79221;BME280;72175;52.118;5.406;2023-10-13T01:09:10;101135.78;;;19.12;67.70
79221;BME280;72175;52.118;5.406;2023-10-13T01:11:48;101134.13;;;19.11;67.64
79221;BME280;72175;52.118;5.406;2023-10-13T01:14:20;101128.75;;;19.11;67.85
79221;BME280;72175;52.118;5.406;2023-10-13T01:16:49;101123.38;;;19.11;67.73
79221;BME280;72175;52.118;5.406;2023-10-13T01:19:19;101121.53;;;19.11;67.90
79221;BME280;72175;52.118;5.406;2023-10-13T01:21:52;101118.03;;;19.11;67.75
79221;BME280;72175;52.118;5.406;2023-10-13T01:24:30;101116.16;;;19.11;67.51
79221;BME280;72175;52.118;5.406;2023-10-13T01:27:07;101109.97;;;19.11;67.62
79221;BME280;72175;52.118;5.406;2023-10-13T01:29:44;101103.78;;;19.10;67.42
79221;BME280;72175;52.118;5.406;2023-10-13T01:32:17;101101.09;;;19.10;67.96
79221;BME280;72175;52.118;5.406;2023-10-13T01:34:44;101096.56;;;19.11;67.74
79221;BME280;72175;52.118;5.406;2023-10-13T01:37:13;101101.09;;;19.10;68.13
79221;BME280;72175;52.118;5.406;2023-10-13T01:39:42;101105.44;;;19.11;67.78
79221;BME280;72175;52.118;5.406;2023-10-13T01:42:13;101093.03;;;19.10;67.93
79221;BME280;72175;52.118;5.406;2023-10-13T01:44:46;101091.19;;;19.11;67.85
79221;BME280;72175;52.118;5.406;2023-10-13T01:47:13;101091.19;;;19.11;67.79
79221;BME280;72175;52.118;5.406;2023-10-13T01:49:39;101087.69;;;19.10;67.79
79221;BME280;72175;52.118;5.406;2023-10-13T01:52:14;101087.69;;;19.10;67.81
79221;BME280;72175;52.118;5.406;2023-10-13T01:54:45;101082.31;;;19.10;67.94
79221;BME280;72175;52.118;5.406;2023-10-13T01:57:12;101077.78;;;19.11;67.85
79221;BME280;72175;52.118;5.406;2023-10-13T01:59:47;101076.94;;;19.10;67.85
79221;BME280;72175;52.118;5.406;2023-10-13T02:02:15;101076.13;;;19.10;67.79
79221;BME280;72175;52.118;5.406;2023-10-13T02:04:55;101068.06;;;19.10;67.85
79221;BME280;72175;52.118;5.406;2023-10-13T02:07:24;101070.75;;;19.10;67.73
79221;BME280;72175;52.118;5.406;2023-10-13T02:09:56;101068.91;;;19.10;67.77
79221;BME280;72175;52.118;5.406;2023-10-13T02:12:23;101062.69;;;19.10;67.89
79221;BME280;72175;52.118;5.406;2023-10-13T02:14:55;101061.88;;;19.09;68.04
79221;BME280;72175;52.118;5.406;2023-10-13T02:17:21;101062.69;;;19.10;67.86
79221;BME280;72175;52.118;5.406;2023-10-13T02:19:53;101060.03;;;19.10;68.02
79221;BME280;72175;52.118;5.406;2023-10-13T02:22:20;101053.81;;;19.09;67.85
79221;BME280;72175;52.118;5.406;2023-10-13T02:24:55;101050.31;;;19.09;67.91
79221;BME280;72175;52.118;5.406;2023-10-13T02:27:28;101053.81;;;19.09;67.60
79221;BME280;72175;52.118;5.406;2023-10-13T02:29:55;101039.59;;;19.09;67.95
79221;BME280;72175;52.118;5.406;2023-10-13T02:32:27;101036.91;;;19.09;67.89
79221;BME280;72175;52.118;5.406;2023-10-13T02:34:56;101041.25;;;19.10;67.80
79221;BME280;72175;52.118;5.406;2023-10-13T02:37:32;101035.25;;;19.08;67.82
79221;BME280;72175;52.118;5.406;2023-10-13T02:39:58;101026.16;;;19.09;68.03
79221;BME280;72175;52.118;5.406;2023-10-13T02:42:26;101031.53;;;19.09;67.93
79221;BME280;72175;52.118;5.406;2023-10-13T02:44:54;101022.66;;;19.08;68.06
79221;BME280;72175;52.118;5.406;2023-10-13T02:47:24;101020.81;;;19.09;68.12
79221;BME280;72175;52.118;5.406;2023-10-13T02:49:51;101004.72;;;19.09;67.98
79221;BME280;72175;52.118;5.406;2023-10-13T02:52:17;100992.13;;;19.09;67.94
79221;BME280;72175;52.118;5.406;2023-10-13T02:54:44;101001.19;;;19.08;68.05
79221;BME280;72175;52.118;5.406;2023-10-13T02:57:17;100986.13;;;19.07;67.95
79221;BME280;72175;52.118;5.406;2023-10-13T02:59:44;100982.41;;;19.08;68.04
79221;BME280;72175;52.118;5.406;2023-10-13T03:02:14;100980.75;;;19.07;67.81
79221;BME280;72175;52.118;5.406;2023-10-13T03:04:46;100977.06;;;19.08;67.92
79221;BME280;72175;52.118;5.406;2023-10-13T03:07:13;100970.03;;;19.07;67.78
79221;BME280;72175;52.118;5.406;2023-10-13T03:09:50;100953.94;;;19.07;68.03
79221;BME280;72175;52.118;5.406;2023-10-13T03:12:19;100945.88;;;19.07;68.00
79221;BME280;72175;52.118;5.406;2023-10-13T03:14:45;100930.63;;;19.08;68.13
79221;BME280;72175;52.118;5.406;2023-10-13T03:17:16;100927.94;;;19.08;68.16
79221;BME280;72175;52.118;5.406;2023-10-13T03:19:48;100923.59;;;19.07;68.10
79221;BME280;72175;52.118;5.406;2023-10-13T03:22:20;100924.44;;;19.07;67.86
79221;BME280;72175;52.118;5.406;2023-10-13T03:24:58;100927.13;;;19.07;67.95
79221;BME280;72175;52.118;5.406;2023-10-13T03:27:39;100923.59;;;19.07;68.04
79221;BME280;72175;52.118;5.406;2023-10-13T03:30:15;100928.13;;;19.06;67.86
79221;BME280;72175;52.118;5.406;2023-10-13T03:32:43;100919.25;;;19.06;68.09
79221;BME280;72175;52.118;5.406;2023-10-13T03:35:14;100919.25;;;19.06;67.93
79221;BME280;72175;52.118;5.406;2023-10-13T03:37:51;100912.03;;;19.06;68.01
79221;BME280;72175;52.118;5.406;2023-10-13T03:40:18;100909.34;;;19.06;68.14
79221;BME280;72175;52.118;5.406;2023-10-13T03:42:53;100922.78;;;19.06;68.05
79221;BME280;72175;52.118;5.406;2023-10-13T03:45:39;100881.72;;;19.06;67.98
79221;BME280;72175;52.118;5.406;2023-10-13T03:48:08;100877.16;;;19.06;67.92
79221;BME280;72175;52.118;5.406;2023-10-13T03:50:42;100876.34;;;19.06;68.05
79221;BME280;72175;52.118;5.406;2023-10-13T03:53:31;100862.94;;;19.06;68.06
79221;BME280;72175;52.118;5.406;2023-10-13T03:56:00;100850.34;;;19.06;67.94
79221;BME280;72175;52.118;5.406;2023-10-13T03:58:39;100838.78;;;19.06;68.00
79221;BME280;72175;52.118;5.406;2023-10-13T04:01:09;100836.94;;;19.06;68.10
79221;BME280;72175;52.118;5.406;2023-10-13T04:03:42;100835.28;;;19.05;68.13
79221;BME280;72175;52.118;5.406;2023-10-13T04:06:24;100824.56;;;19.05;68.18
79221;BME280;72175;52.118;5.406;2023-10-13T04:09:17;100830.75;;;19.06;68.08
79221;BME280;72175;52.118;5.406;2023-10-13T04:12:07;100814.66;;;19.06;68.19
79221;BME280;72175;52.118;5.406;2023-10-13T04:14:43;100802.25;;;19.05;68.06
79221;BME280;72175;52.118;5.406;2023-10-13T04:17:29;100805.78;;;19.05;68.14
79221;BME280;72175;52.118;5.406;2023-10-13T04:20:00;100792.38;;;19.05;68.13
79221;BME280;72175;52.118;5.406;2023-10-13T04:22:33;100790.50;;;19.06;68.01
79221;BME280;72175;52.118;5.406;2023-10-13T04:25:23;100784.31;;;19.05;68.08
79221;BME280;72175;52.118;5.406;2023-10-13T04:28:13;100775.44;;;19.05;68.20
79221;BME280;72175;52.118;5.406;2023-10-13T04:33:31;100778.13;;;19.05;67.95
79221;BME280;72175;52.118;5.406;2023-10-13T04:36:05;100768.41;;;19.04;68.03
79221;BME280;72175;52.118;5.406;2023-10-13T04:38:41;100759.34;;;19.05;68.02
79221;BME280;72175;52.118;5.406;2023-10-13T04:41:24;100758.53;;;19.04;67.91
79221;BME280;72175;52.118;5.406;2023-10-13T04:43:51;100750.47;;;19.04;67.98
79221;BME280;72175;52.118;5.406;2023-10-13T04:46:31;100745.94;;;19.05;68.31
79221;BME280;72175;52.118;5.406;2023-10-13T04:49:13;100739.75;;;19.04;68.09
79221;BME280;72175;52.118;5.406;2023-10-13T04:52:02;100742.44;;;19.04;67.92
79221;BME280;72175;52.118;5.406;2023-10-13T04:54:40;100744.28;;;19.04;68.08
79221;BME280;72175;52.118;5.406;2023-10-13T04:57:21;100736.25;;;19.04;68.13
79221;BME280;72175;52.118;5.406;2023-10-13T05:00:04;100728.19;;;19.04;68.13
79221;BME280;72175;52.118;5.406;2023-10-13T05:05:13;100730.88;;;19.04;68.31
79221;BME280;72175;52.118;5.406;2023-10-13T05:07:48;100713.94;;;19.03;67.88
79221;BME280;72175;52.118;5.406;2023-10-13T05:10:34;100705.91;;;19.03;68.27
79221;BME280;72175;52.118;5.406;2023-10-13T05:13:31;100707.75;;;19.03;68.11
79221;BME280;72175;52.118;5.406;2023-10-13T05:16:16;100710.44;;;19.03;68.23
79221;BME280;72175;52.118;5.406;2023-10-13T05:19:00;100697.88;;;19.03;68.01
79221;BME280;72175;52.118;5.406;2023-10-13T05:21:46;100694.34;;;19.03;68.39
79221;BME280;72175;52.118;5.406;2023-10-13T05:24:31;100693.31;;;19.04;68.21
79221;BME280;72175;52.118;5.406;2023-10-13T05:27:17;100695.19;;;19.03;68.33
79221;BME280;72175;52.118;5.406;2023-10-13T05:30:02;100701.56;;;19.02;68.16
79221;BME280;72175;52.118;5.406;2023-10-13T05:32:48;100699.72;;;19.03;68.25
79221;BME280;72175;52.118;5.406;2023-10-13T05:35:33;100694.34;;;19.03;68.19
79221;BME280;72175;52.118;5.406;2023-10-13T05:38:17;100697.03;;;19.03;68.09
79221;BME280;72175;52.118;5.406;2023-10-13T05:41:04;100702.41;;;19.03;68.21
79221;BME280;72175;52.118;5.406;2023-10-13T05:43:51;100691.66;;;19.03;68.26
79221;BME280;72175;52.118;5.406;2023-10-13T05:46:44;100697.88;;;19.03;68.33
79221;BME280;72175;52.118;5.406;2023-10-13T05:49:37;100685.47;;;19.02;68.06
79221;BME280;72175;52.118;5.406;2023-10-13T05:52:17;100685.47;;;19.02;68.47
79221;BME280;72175;52.118;5.406;2023-10-13T05:55:06;100677.44;;;19.02;68.20
79221;BME280;72175;52.118;5.406;2023-10-13T05:57:51;100683.63;;;19.03;68.41
79221;BME280;72175;52.118;5.406;2023-10-13T06:00:40;100671.25;;;19.02;68.27
79221;BME280;72175;52.118;5.406;2023-10-13T06:03:25;100665.03;;;19.01;68.07
79221;BME280;72175;52.118;5.406;2023-10-13T06:06:10;100674.75;;;19.02;68.46
79221;BME280;72175;52.118;5.406;2023-10-13T06:08:55;100686.13;;;19.04;68.51
79221;BME280;72175;52.118;5.406;2023-10-13T06:11:40;100670.84;;;19.05;68.48
79221;BME280;72175;52.118;5.406;2023-10-13T06:14:25;100664.47;;;19.06;68.36
79221;BME280;72175;52.118;5.406;2023-10-13T06:17:10;100666.13;;;19.07;68.43
79221;BME280;72175;52.118;5.406;2023-10-13T06:19:54;100654.38;;;19.08;68.46
79221;BME280;72175;52.118;5.406;2023-10-13T06:22:40;100644.28;;;19.10;68.45
79221;BME280;72175;52.118;5.406;2023-10-13T06:25:25;100645.09;;;19.10;68.15
79221;BME280;72175;52.118;5.406;2023-10-13T06:28:10;100641.41;;;19.11;68.16
79221;BME280;72175;52.118;5.406;2023-10-13T06:30:57;100631.50;;;19.12;68.50
79221;BME280;72175;52.118;5.406;2023-10-13T06:33:26;100631.94;;;19.15;68.48
79221;BME280;72175;52.118;5.406;2023-10-13T06:35:56;100631.94;;;19.15;68.90
79221;BME280;72175;52.118;5.406;2023-10-13T06:38:24;100637.91;;;19.17;68.98
79221;BME280;72175;52.118;5.406;2023-10-13T06:40:50;100639.56;;;19.18;68.74
79221;BME280;72175;52.118;5.406;2023-10-13T06:43:18;100632.34;;;19.19;68.61
79221;BME280;72175;52.118;5.406;2023-10-13T06:45:48;100628.63;;;19.20;69.01
79221;BME280;72175;52.118;5.406;2023-10-13T06:48:27;100622.25;;;19.21;68.78
79221;BME280;72175;52.118;5.406;2023-10-13T06:51:00;100627.59;;;19.21;68.81
79221;BME280;72175;52.118;5.406;2023-10-13T06:53:32;100625.56;;;19.23;68.86
79221;BME280;72175;52.118;5.406;2023-10-13T06:56:14;100626.38;;;19.23;68.72
79221;BME280;72175;52.118;5.406;2023-10-13T06:58:51;100618.34;;;19.23;69.09
79221;BME280;72175;52.118;5.406;2023-10-13T07:01:17;100606.56;;;19.25;68.76
79221;BME280;72175;52.118;5.406;2023-10-13T07:03:48;100610.91;;;19.26;68.67
79221;BME280;72175;52.118;5.406;2023-10-13T07:06:23;100607.22;;;19.27;68.71
79221;BME280;72175;52.118;5.406;2023-10-13T07:08:51;100607.22;;;19.27;68.89
79221;BME280;72175;52.118;5.406;2023-10-13T07:11:24;100594.63;;;19.27;68.74
79221;BME280;72175;52.118;5.406;2023-10-13T07:14:01;100602.47;;;19.29;68.82
79221;BME280;72175;52.118;5.406;2023-10-13T07:17:05;100597.94;;;19.29;68.75
79221;BME280;72175;52.118;5.406;2023-10-13T07:19:32;100576.47;;;19.29;68.75
79221;BME280;72175;52.118;5.406;2023-10-13T07:22:01;100563.06;;;19.29;68.88
79221;BME280;72175;52.118;5.406;2023-10-13T07:24:49;100547.59;;;19.31;68.66
79221;BME280;72175;52.118;5.406;2023-10-13T07:27:20;100544.91;;;19.31;68.74
79221;BME280;72175;52.118;5.406;2023-10-13T07:29:51;100545.72;;;19.32;69.04
79221;BME280;72175;52.118;5.406;2023-10-13T07:32:25;100533.34;;;19.31;68.83
79221;BME280;72175;52.118;5.406;2023-10-13T07:34:53;100544.91;;;19.31;68.91
79221;BME280;72175;52.118;5.406;2023-10-13T07:37:23;100539.53;;;19.31;69.04
79221;BME280;72175;52.118;5.406;2023-10-13T07:39:56;100547.34;;;19.33;68.85
79221;BME280;72175;52.118;5.406;2023-10-13T07:42:28;100540.38;;;19.32;68.83
79221;BME280;72175;52.118;5.406;2023-10-13T07:45:06;100551.09;;;19.32;68.77
79221;BME280;72175;52.118;5.406;2023-10-13T07:47:34;100550.03;;;19.33;68.39
79221;BME280;72175;52.118;5.406;2023-10-13T07:50:00;100530.22;;;19.34;68.67
79221;BME280;72175;52.118;5.406;2023-10-13T07:52:27;100549.00;;;19.34;68.37
79221;BME280;72175;52.118;5.406;2023-10-13T07:55:07;100529.41;;;19.33;68.78
79221;BME280;72175;52.118;5.406;2023-10-13T07:57:37;100539.09;;;19.34;68.49
79221;BME280;72175;52.118;5.406;2023-10-13T08:00:20;100544.47;;;19.34;68.25
79221;BME280;72175;52.118;5.406;2023-10-13T08:03:08;100525.69;;;19.34;68.80
79221;BME280;72175;52.118;5.406;2023-10-13T08:05:51;100545.31;;;19.35;68.70
79221;BME280;72175;52.118;5.406;2023-10-13T08:08:33;100539.72;;;19.36;69.23
79221;BME280;72175;52.118;5.406;2023-10-13T08:11:09;100537.06;;;19.36;68.75
79221;BME280;72175;52.118;5.406;2023-10-13T08:13:52;100533.34;;;19.37;69.00
79221;BME280;72175;52.118;5.406;2023-10-13T08:17:03;100538.72;;;19.37;68.92
79221;BME280;72175;52.118;5.406;2023-10-13T08:19:40;100533.34;;;19.37;68.66
79221;BME280;72175;52.118;5.406;2023-10-13T08:22:11;100510.84;;;19.38;68.76
79221;BME280;72175;52.118;5.406;2023-10-13T08:24:52;100519.94;;;19.37;68.85
79221;BME280;72175;52.118;5.406;2023-10-13T08:27:20;100518.91;;;19.38;68.86
79221;BME280;72175;52.118;5.406;2023-10-13T08:30:03;100518.06;;;19.38;69.03
79221;BME280;72175;52.118;5.406;2023-10-13T08:32:48;100520.56;;;19.39;68.65
79221;BME280;72175;52.118;5.406;2023-10-13T08:35:23;100511.69;;;19.39;68.79
79221;BME280;72175;52.118;5.406;2023-10-13T08:37:56;100516.84;;;19.40;69.02
79221;BME280;72175;52.118;5.406;2023-10-13T08:40:44;100507.97;;;19.40;68.91
79221;BME280;72175;52.118;5.406;2023-10-13T08:43:43;100493.50;;;19.41;68.74
79221;BME280;72175;52.118;5.406;2023-10-13T08:46:16;100500.75;;;19.40;68.80
79221;BME280;72175;52.118;5.406;2023-10-13T08:48:59;100488.97;;;19.41;69.01
79221;BME280;72175;52.118;5.406;2023-10-13T08:51:47;100497.84;;;19.42;68.94
79221;BME280;72175;52.118;5.406;2023-10-13T08:54:17;100497.84;;;19.42;69.07
79221;BME280;72175;52.118;5.406;2023-10-13T08:57:01;100491.47;;;19.43;68.88
79221;BME280;72175;52.118;5.406;2023-10-13T08:59:47;100471.84;;;19.42;68.77
79221;BME280;72175;52.118;5.406;2023-10-13T09:02:23;100492.28;;;19.43;69.20
79221;BME280;72175;52.118;5.406;2023-10-13T09:05:11;100485.06;;;19.44;68.71
79221;BME280;72175;52.118;5.406;2023-10-13T09:08:00;100477.00;;;19.44;68.85
79221;BME280;72175;52.118;5.406;2023-10-13T09:10:36;100488.56;;;19.44;69.13
79221;BME280;72175;52.118;5.406;2023-10-13T09:13:11;100475.16;;;19.44;69.01
79221;BME280;72175;52.118;5.406;2023-10-13T09:15:45;100473.50;;;19.43;69.11
79221;BME280;72175;52.118;5.406;2023-10-13T09:18:27;100475.97;;;19.45;68.92
79221;BME280;72175;52.118;5.406;2023-10-13T09:21:15;100465.25;;;19.45;68.90
79221;BME280;72175;52.118;5.406;2023-10-13T09:24:15;100464.22;;;19.46;68.89
79221;BME280;72175;52.118;5.406;2023-10-13T09:26:58;100464.22;;;19.46;68.79
79221;BME280;72175;52.118;5.406;2023-10-13T09:29:27;100474.75;;;19.47;68.97
79221;BME280;72175;52.118;5.406;2023-10-13T09:32:00;100482.81;;;19.47;69.21
79221;BME280;72175;52.118;5.406;2023-10-13T09:34:29;100472.91;;;19.48;68.73
79221;BME280;72175;52.118;5.406;2023-10-13T09:37:00;100455.97;;;19.47;69.06
79221;BME280;72175;52.118;5.406;2023-10-13T09:39:29;100462.16;;;19.48;69.18
79221;BME280;72175;52.118;5.406;2023-10-13T09:41:57;100439.88;;;19.47;68.93
79221;BME280;72175;52.118;5.406;2023-10-13T09:44:26;100445.22;;;19.47;69.15
79221;BME280;72175;52.118;5.406;2023-10-13T09:47:01;100447.69;;;19.49;69.11
79221;BME280;72175;52.118;5.406;2023-10-13T09:49:45;100445.00;;;19.49;68.93
79221;BME280;72175;52.118;5.406;2023-10-13T09:52:15;100428.91;;;19.49;69.01
79221;BME280;72175;52.118;5.406;2023-10-13T09:55:26;100435.13;;;19.49;68.94
79221;BME280;72175;52.118;5.406;2023-10-13T09:58:07;100432.44;;;19.49;68.88
79221;BME280;72175;52.118;5.406;2023-10-13T10:00:43;100420.69;;;19.50;68.98
79221;BME280;72175;52.118;5.406;2023-10-13T10:03:14;100418.81;;;19.51;68.92
79221;BME280;72175;52.118;5.406;2023-10-13T10:06:08;100421.50;;;19.51;68.86
79221;BME280;72175;52.118;5.406;2023-10-13T10:08:43;100412.41;;;19.52;68.95
79221;BME280;72175;52.118;5.406;2023-10-13T10:11:54;100412.41;;;19.52;69.08
79221;BME280;72175;52.118;5.406;2023-10-13T10:17:22;100397.97;;;19.53;69.18
79221;BME280;72175;52.118;5.406;2023-10-13T10:19:51;100401.47;;;19.53;69.24
79221;BME280;72175;52.118;5.406;2023-10-13T10:22:29;100404.16;;;19.53;69.21
79221;BME280;72175;52.118;5.406;2023-10-13T10:25:04;100405.00;;;19.54;69.13
79221;BME280;72175;52.118;5.406;2023-10-13T10:28:09;100392.41;;;19.54;69.15
79221;BME280;72175;52.118;5.406;2023-10-13T10:30:37;100388.88;;;19.54;69.15
79221;BME280;72175;52.118;5.406;2023-10-13T10:33:12;100382.50;;;19.55;69.39
79221;BME280;72175;52.118;5.406;2023-10-13T10:35:46;100372.56;;;19.55;69.36
79221;BME280;72175;52.118;5.406;2023-10-13T10:38:17;100375.25;;;19.55;69.16
79221;BME280;72175;52.118;5.406;2023-10-13T10:40:58;100378.78;;;19.56;69.20
79221;BME280;72175;52.118;5.406;2023-10-13T10:46:17;100365.34;;;19.56;69.08
79221;BME280;72175;52.118;5.406;2023-10-13T10:48:45;100369.91;;;19.55;69.13
79221;BME280;72175;52.118;5.406;2023-10-13T10:51:14;100362.66;;;19.56;69.37
79221;BME280;72175;52.118;5.406;2023-10-13T10:53:55;100358.34;;;19.55;69.15
79221;BME280;72175;52.118;5.406;2023-10-13T10:56:25;100363.50;;;19.56;69.39
79221;BME280;72175;52.118;5.406;2023-10-13T10:59:07;100359.78;;;19.58;69.35
79221;BME280;72175;52.118;5.406;2023-10-13T11:01:54;100349.03;;;19.58;69.26
79221;BME280;72175;52.118;5.406;2023-10-13T11:04:20;100339.97;;;19.59;69.31
79221;BME280;72175;52.118;5.406;2023-10-13T11:06:55;100344.50;;;19.58;69.19
79221;BME280;72175;52.118;5.406;2023-10-13T11:09:30;100333.75;;;19.58;69.25
79221;BME280;72175;52.118;5.406;2023-10-13T11:14:34;100339.13;;;19.58;69.19
79221;BME280;72175;52.118;5.406;2023-10-13T11:17:01;100336.44;;;19.58;69.23
79221;BME280;72175;52.118;5.406;2023-10-13T11:19:42;100338.31;;;19.58;69.24
79221;BME280;72175;52.118;5.406;2023-10-13T11:22:10;100337.28;;;19.59;69.19
79221;BME280;72175;52.118;5.406;2023-10-13T11:24:41;100316.63;;;19.59;69.15
79221;BME280;72175;52.118;5.406;2023-10-13T11:27:15;100316.63;;;19.59;69.09
79221;BME280;72175;52.118;5.406;2023-10-13T11:30:05;100308.56;;;19.59;69.21
79221;BME280;72175;52.118;5.406;2023-10-13T11:32:38;100313.94;;;19.59;69.25
79221;BME280;72175;52.118;5.406;2023-10-13T11:35:12;100307.53;;;19.60;69.17
79221;BME280;72175;52.118;5.406;2023-10-13T11:37:50;100303.00;;;19.61;69.00
79221;BME280;72175;52.118;5.406;2023-10-13T11:40:34;100276.16;;;19.61;69.12
79221;BME280;72175;52.118;5.406;2023-10-13T11:43:10;100296.81;;;19.60;69.23
79221;BME280;72175;52.118;5.406;2023-10-13T11:45:41;100283.19;;;19.62;69.15
79221;BME280;72175;52.118;5.406;2023-10-13T11:48:26;100268.72;;;19.63;69.29
79221;BME280;72175;52.118;5.406;2023-10-13T11:51:10;100267.06;;;19.62;69.40
79221;BME280;72175;52.118;5.406;2023-10-13T11:54:06;100269.75;;;19.62;69.19
79221;BME280;72175;52.118;5.406;2023-10-13T11:56:39;100261.50;;;19.63;69.22
79221;BME280;72175;52.118;5.406;2023-10-13T11:59:05;100279.47;;;19.63;69.26
79221;BME280;72175;52.118;5.406;2023-10-13T12:01:32;100280.28;;;19.63;69.45
79221;BME280;72175;52.118;5.406;2023-10-13T12:04:17;100279.25;;;19.64;69.23
79221;BME280;72175;52.118;5.406;2023-10-13T12:07:08;100283.56;;;19.65;69.08
79221;BME280;72175;52.118;5.406;2023-10-13T12:09:44;100274.69;;;19.65;69.10
79221;BME280;72175;52.118;5.406;2023-10-13T12:12:26;100281.69;;;19.66;69.13
79221;BME280;72175;52.118;5.406;2023-10-13T12:14:53;100288.94;;;19.65;69.20
79221;BME280;72175;52.118;5.406;2023-10-13T12:17:28;100284.38;;;19.66;68.97
79221;BME280;72175;52.118;5.406;2023-10-13T12:19:58;100289.75;;;19.66;69.13
79221;BME280;72175;52.118;5.406;2023-10-13T12:22:25;100289.75;;;19.66;69.02
79221;BME280;72175;52.118;5.406;2023-10-13T12:25:02;100285.22;;;19.66;69.20
79221;BME280;72175;52.118;5.406;2023-10-13T12:27:45;100283.16;;;19.68;69.25
79221;BME280;72175;52.118;5.406;2023-10-13T12:30:15;100250.09;;;19.68;69.11
79221;BME280;72175;52.118;5.406;2023-10-13T12:32:49;100264.34;;;19.68;69.22
79221;BME280;72175;52.118;5.406;2023-10-13T12:35:36;100275.09;;;19.68;69.25
79221;BME280;72175;52.118;5.406;2023-10-13T12:38:11;100259.81;;;19.69;69.14
79221;BME280;72175;52.118;5.406;2023-10-13T12:41:06;100251.75;;;19.69;69.21
79221;BME280;72175;52.118;5.406;2023-10-13T12:44:02;100270.53;;;19.69;69.24
79221;BME280;72175;52.118;5.406;2023-10-13T12:46:48;100278.59;;;19.69;69.12
79221;BME280;72175;52.118;5.406;2023-10-13T12:49:34;100258.78;;;19.70;69.13
79221;BME280;72175;52.118;5.406;2023-10-13T12:52:07;100266.81;;;19.70;69.38
79221;BME280;72175;52.118;5.406;2023-10-13T12:54:44;100271.38;;;19.69;69.32
79221;BME280;72175;52.118;5.406;2023-10-13T12:57:17;100275.72;;;19.70;69.06
79221;BME280;72175;52.118;5.406;2023-10-13T12:59:43;100268.47;;;19.71;69.48
79221;BME280;72175;52.118;5.406;2023-10-13T13:02:10;100273.84;;;19.71;69.08
79221;BME280;72175;52.118;5.406;2023-10-13T13:04:41;100285.41;;;19.71;69.21
79221;BME280;72175;52.118;5.406;2023-10-13T13:07:12;100272.00;;;19.71;69.27
79221;BME280;72175;52.118;5.406;2023-10-13T13:09:41;100280.03;;;19.71;69.31
79221;BME280;72175;52.118;5.406;2023-10-13T13:12:07;100273.03;;;19.70;69.41
79221;BME280;72175;52.118;5.406;2023-10-13T13:14:34;100270.34;;;19.70;69.27
79221;BME280;72175;52.118;5.406;2023-10-13T13:17:01;100278.38;;;19.70;69.31
79221;BME280;72175;52.118;5.406;2023-10-13T13:19:36;100266.63;;;19.71;69.29
79221;BME280;72175;52.118;5.406;2023-10-13T13:22:06;100273.03;;;19.70;69.41
79221;BME280;72175;52.118;5.406;2023-10-13T13:24:40;100274.66;;;19.71;69.32
79221;BME280;72175;52.118;5.406;2023-10-13T13:27:14;100271.16;;;19.71;69.10
79221;BME280;72175;52.118;5.406;2023-10-13T13:29:43;100282.72;;;19.71;69.30
79221;BME280;72175;52.118;5.406;2023-10-13T13:32:10;100270.13;;;19.72;69.10
79221;BME280;72175;52.118;5.406;2023-10-13T13:34:45;100259.38;;;19.72;69.13
79221;BME280;72175;52.118;5.406;2023-10-13T13:37:24;100242.47;;;19.71;69.14
79221;BME280;72175;52.118;5.406;2023-10-13T13:39:54;100244.09;;;19.72;69.15
79221;BME280;72175;52.118;5.406;2023-10-13T13:42:20;100245.97;;;19.72;69.28
79221;BME280;72175;52.118;5.406;2023-10-13T13:44:47;100241.44;;;19.72;69.31
79221;BME280;72175;52.118;5.406;2023-10-13T13:47:14;100246.78;;;19.72;69.31
79221;BME280;72175;52.118;5.406;2023-10-13T13:49:42;100244.09;;;19.72;69.21
79221;BME280;72175;52.118;5.406;2023-10-13T13:52:19;100248.44;;;19.73;69.19